sensor_id;sensor_type;location;lat;lon;timestamp;P1;durP1;ratioP1;P2;durP2;ratioP2
22935;SDS011;11633;42.716;23.312;2022-08-02T00:01:51;0.70;;;0.65;;
22935;SDS011;11633;42.716;23.312;2022-08-02T00:04:17;1.20;;;1.10;;
22935;SDS011;11633;42.716;23.312;2022-08-02T00:06:42;4.18;;;1.27;;
22935;SDS011;11633;42.716;23.312;2022-08-02T00:09:07;0.82;;;0.75;;
22935;SDS011;11633;42.716;23.312;2022-08-02T00:11:32;1.50;;;0.80;;
22935;SDS011;11633;42.716;23.312;2022-08-02T00:13:58;1.17;;;1.08;;
22935;SDS011;11633;42.716;23.312;2022-08-02T00:16:23;0.90;;;0.80;;
22935;SDS011;11633;42.716;23.312;2022-08-02T00:18:48;1.90;;;1.50;;
22935;SDS011;11633;42.716;23.312;2022-08-02T00:21:14;0.80;;;0.70;;
22935;SDS011;11633;42.716;23.312;2022-08-02T00:23:40;0.85;;;0.85;;
22935;SDS011;11633;42.716;23.312;2022-08-02T00:26:05;1.23;;;0.95;;
22935;SDS011;11633;42.716;23.312;2022-08-02T00:28:30;1.88;;;1.10;;
22935;SDS011;11633;42.716;23.312;2022-08-02T00:30:56;0.82;;;0.80;;
22935;SDS011;11633;42.716;23.312;2022-08-02T00:33:21;0.63;;;0.63;;
22935;SDS011;11633;42.716;23.312;2022-08-02T00:35:46;1.75;;;1.63;;
22935;SDS011;11633;42.716;23.312;2022-08-02T00:38:12;1.58;;;0.75;;
22935;SDS011;11633;42.716;23.312;2022-08-02T00:40:38;1.20;;;1.00;;
22935;SDS011;11633;42.716;23.312;2022-08-02T00:43:07;1.45;;;0.77;;
22935;SDS011;11633;42.716;23.312;2022-08-02T00:45:33;2.10;;;1.20;;
22935;SDS011;11633;42.716;23.312;2022-08-02T00:47:59;1.38;;;1.05;;
22935;SDS011;11633;42.716;23.312;2022-08-02T00:50:24;1.27;;;1.15;;
22935;SDS011;11633;42.716;23.312;2022-08-02T00:52:49;1.23;;;1.05;;
22935;SDS011;11633;42.716;23.312;2022-08-02T00:55:15;1.08;;;1.02;;
22935;SDS011;11633;42.716;23.312;2022-08-02T00:57:40;1.10;;;1.02;;
22935;SDS011;11633;42.716;23.312;2022-08-02T01:00:05;1.00;;;0.98;;
22935;SDS011;11633;42.716;23.312;2022-08-02T01:02:31;1.35;;;1.17;;
22935;SDS011;11633;42.716;23.312;2022-08-02T01:04:56;1.33;;;1.23;;
22935;SDS011;11633;42.716;23.312;2022-08-02T01:07:22;1.65;;;1.25;;
22935;SDS011;11633;42.716;23.312;2022-08-02T01:09:47;1.73;;;1.10;;
22935;SDS011;11633;42.716;23.312;2022-08-02T01:12:12;1.10;;;0.93;;
22935;SDS011;11633;42.716;23.312;2022-08-02T01:14:38;1.20;;;1.10;;
22935;SDS011;11633;42.716;23.312;2022-08-02T01:28:01;2.67;;;1.00;;
22935;SDS011;11633;42.716;23.312;2022-08-02T01:30:28;2.00;;;1.80;;
22935;SDS011;11633;42.716;23.312;2022-08-02T01:32:54;1.92;;;1.80;;
22935;SDS011;11633;42.716;23.312;2022-08-02T01:35:27;1.70;;;1.48;;
22935;SDS011;11633;42.716;23.312;2022-08-02T01:37:55;1.35;;;1.25;;
22935;SDS011;11633;42.716;23.312;2022-08-02T01:40:27;1.45;;;1.35;;
22935;SDS011;11633;42.716;23.312;2022-08-02T01:42:54;1.50;;;1.40;;
22935;SDS011;11633;42.716;23.312;2022-08-02T01:45:20;1.08;;;0.98;;
22935;SDS011;11633;42.716;23.312;2022-08-02T01:47:45;1.30;;;1.20;;
22935;SDS011;11633;42.716;23.312;2022-08-02T01:50:13;1.58;;;1.40;;
22935;SDS011;11633;42.716;23.312;2022-08-02T01:52:40;1.60;;;1.50;;
22935;SDS011;11633;42.716;23.312;2022-08-02T01:57:34;1.08;;;0.98;;
22935;SDS011;11633;42.716;23.312;2022-08-02T02:00:00;1.48;;;1.38;;
22935;SDS011;11633;42.716;23.312;2022-08-02T02:02:26;1.35;;;1.20;;
22935;SDS011;11633;42.716;23.312;2022-08-02T02:04:52;1.75;;;1.40;;
22935;SDS011;11633;42.716;23.312;2022-08-02T02:07:18;1.30;;;1.20;;
22935;SDS011;11633;42.716;23.312;2022-08-02T02:09:45;2.33;;;1.30;;
22935;SDS011;11633;42.716;23.312;2022-08-02T02:12:11;1.30;;;1.20;;
22935;SDS011;11633;42.716;23.312;2022-08-02T02:14:37;1.25;;;1.15;;
22935;SDS011;11633;42.716;23.312;2022-08-02T02:17:02;3.58;;;1.60;;
22935;SDS011;11633;42.716;23.312;2022-08-02T02:19:28;1.17;;;1.08;;
22935;SDS011;11633;42.716;23.312;2022-08-02T02:21:54;2.53;;;1.77;;
22935;SDS011;11633;42.716;23.312;2022-08-02T02:24:21;1.42;;;1.33;;
22935;SDS011;11633;42.716;23.312;2022-08-02T02:26:46;1.80;;;1.40;;
22935;SDS011;11633;42.716;23.312;2022-08-02T02:29:12;1.63;;;1.52;;
22935;SDS011;11633;42.716;23.312;2022-08-02T02:31:38;1.58;;;1.10;;
22935;SDS011;11633;42.716;23.312;2022-08-02T02:34:06;1.15;;;1.05;;
22935;SDS011;11633;42.716;23.312;2022-08-02T02:36:34;1.92;;;1.50;;
22935;SDS011;11633;42.716;23.312;2022-08-02T02:39:00;1.20;;;1.10;;
22935;SDS011;11633;42.716;23.312;2022-08-02T02:41:27;1.83;;;1.52;;
22935;SDS011;11633;42.716;23.312;2022-08-02T02:43:53;2.15;;;1.20;;
22935;SDS011;11633;42.716;23.312;2022-08-02T02:46:19;1.50;;;1.33;;
22935;SDS011;11633;42.716;23.312;2022-08-02T02:48:45;1.20;;;1.10;;
22935;SDS011;11633;42.716;23.312;2022-08-02T02:51:11;2.67;;;1.33;;
22935;SDS011;11633;42.716;23.312;2022-08-02T02:53:37;1.23;;;1.13;;
22935;SDS011;11633;42.716;23.312;2022-08-02T02:56:02;1.15;;;1.05;;
22935;SDS011;11633;42.716;23.312;2022-08-02T02:58:28;1.95;;;1.40;;
22935;SDS011;11633;42.716;23.312;2022-08-02T03:00:54;1.42;;;1.33;;
22935;SDS011;11633;42.716;23.312;2022-08-02T03:03:38;1.20;;;1.10;;
22935;SDS011;11633;42.716;23.312;2022-08-02T03:06:04;1.02;;;0.90;;
22935;SDS011;11633;42.716;23.312;2022-08-02T03:08:29;1.25;;;1.15;;
22935;SDS011;11633;42.716;23.312;2022-08-02T03:10:54;2.15;;;1.33;;
22935;SDS011;11633;42.716;23.312;2022-08-02T03:13:20;2.05;;;1.38;;
22935;SDS011;11633;42.716;23.312;2022-08-02T03:15:45;1.15;;;0.90;;
22935;SDS011;11633;42.716;23.312;2022-08-02T03:18:33;1.20;;;1.10;;
22935;SDS011;11633;42.716;23.312;2022-08-02T03:20:58;1.73;;;1.58;;
22935;SDS011;11633;42.716;23.312;2022-08-02T03:23:23;1.60;;;1.48;;
22935;SDS011;11633;42.716;23.312;2022-08-02T03:25:48;1.40;;;1.10;;
22935;SDS011;11633;42.716;23.312;2022-08-02T03:28:14;1.67;;;1.58;;
22935;SDS011;11633;42.716;23.312;2022-08-02T03:30:39;2.30;;;1.27;;
22935;SDS011;11633;42.716;23.312;2022-08-02T03:33:04;1.77;;;1.40;;
22935;SDS011;11633;42.716;23.312;2022-08-02T03:35:29;2.08;;;1.48;;
22935;SDS011;11633;42.716;23.312;2022-08-02T03:37:55;1.75;;;1.60;;
22935;SDS011;11633;42.716;23.312;2022-08-02T03:40:21;1.58;;;1.25;;
22935;SDS011;11633;42.716;23.312;2022-08-02T03:42:47;1.90;;;1.23;;
22935;SDS011;11633;42.716;23.312;2022-08-02T03:45:13;4.13;;;1.60;;
22935;SDS011;11633;42.716;23.312;2022-08-02T03:47:39;2.13;;;1.70;;
22935;SDS011;11633;42.716;23.312;2022-08-02T03:50:08;1.30;;;1.20;;
22935;SDS011;11633;42.716;23.312;2022-08-02T03:52:35;1.73;;;1.40;;
22935;SDS011;11633;42.716;23.312;2022-08-02T03:55:00;3.35;;;1.77;;
22935;SDS011;11633;42.716;23.312;2022-08-02T03:57:26;1.75;;;1.58;;
22935;SDS011;11633;42.716;23.312;2022-08-02T03:59:51;1.30;;;1.13;;
22935;SDS011;11633;42.716;23.312;2022-08-02T04:02:16;2.22;;;1.38;;
22935;SDS011;11633;42.716;23.312;2022-08-02T04:04:42;1.63;;;1.52;;
22935;SDS011;11633;42.716;23.312;2022-08-02T04:07:07;2.47;;;1.20;;
22935;SDS011;11633;42.716;23.312;2022-08-02T04:09:32;2.25;;;1.33;;
22935;SDS011;11633;42.716;23.312;2022-08-02T04:11:57;3.13;;;1.33;;
22935;SDS011;11633;42.716;23.312;2022-08-02T04:14:23;1.20;;;1.10;;
22935;SDS011;11633;42.716;23.312;2022-08-02T04:16:52;1.80;;;1.27;;
22935;SDS011;11633;42.716;23.312;2022-08-02T04:19:20;2.30;;;1.58;;
22935;SDS011;11633;42.716;23.312;2022-08-02T04:21:49;1.75;;;1.17;;
22935;SDS011;11633;42.716;23.312;2022-08-02T04:24:15;1.67;;;1.58;;
22935;SDS011;11633;42.716;23.312;2022-08-02T04:26:41;3.40;;;1.27;;
22935;SDS011;11633;42.716;23.312;2022-08-02T04:29:08;1.92;;;1.70;;
22935;SDS011;11633;42.716;23.312;2022-08-02T04:31:34;1.90;;;1.50;;
22935;SDS011;11633;42.716;23.312;2022-08-02T04:34:00;2.15;;;1.80;;
22935;SDS011;11633;42.716;23.312;2022-08-02T04:36:25;2.50;;;1.20;;
22935;SDS011;11633;42.716;23.312;2022-08-02T04:38:51;2.17;;;1.50;;
22935;SDS011;11633;42.716;23.312;2022-08-02T04:41:16;1.88;;;1.48;;
22935;SDS011;11633;42.716;23.312;2022-08-02T04:43:41;1.85;;;1.30;;
22935;SDS011;11633;42.716;23.312;2022-08-02T04:46:07;1.80;;;1.50;;
22935;SDS011;11633;42.716;23.312;2022-08-02T04:48:32;2.45;;;1.60;;
22935;SDS011;11633;42.716;23.312;2022-08-02T04:50:57;3.13;;;1.35;;
22935;SDS011;11633;42.716;23.312;2022-08-02T04:53:23;1.83;;;1.52;;
22935;SDS011;11633;42.716;23.312;2022-08-02T04:55:48;2.08;;;1.50;;
22935;SDS011;11633;42.716;23.312;2022-08-02T04:58:13;1.90;;;1.45;;
22935;SDS011;11633;42.716;23.312;2022-08-02T05:00:39;2.03;;;1.40;;
22935;SDS011;11633;42.716;23.312;2022-08-02T05:03:04;2.55;;;2.35;;
22935;SDS011;11633;42.716;23.312;2022-08-02T05:05:29;2.03;;;1.55;;
22935;SDS011;11633;42.716;23.312;2022-08-02T05:07:55;3.20;;;1.88;;
22935;SDS011;11633;42.716;23.312;2022-08-02T05:10:20;2.72;;;1.88;;
22935;SDS011;11633;42.716;23.312;2022-08-02T05:12:46;1.95;;;1.65;;
22935;SDS011;11633;42.716;23.312;2022-08-02T05:15:12;2.00;;;1.80;;
22935;SDS011;11633;42.716;23.312;2022-08-02T05:17:38;2.75;;;1.88;;
22935;SDS011;11633;42.716;23.312;2022-08-02T05:20:04;2.60;;;1.60;;
22935;SDS011;11633;42.716;23.312;2022-08-02T05:22:29;2.92;;;2.33;;
22935;SDS011;11633;42.716;23.312;2022-08-02T05:24:54;3.33;;;2.28;;
22935;SDS011;11633;42.716;23.312;2022-08-02T05:27:20;2.93;;;2.70;;
22935;SDS011;11633;42.716;23.312;2022-08-02T05:29:45;2.78;;;2.05;;
22935;SDS011;11633;42.716;23.312;2022-08-02T05:32:10;2.20;;;1.80;;
22935;SDS011;11633;42.716;23.312;2022-08-02T05:34:36;1.65;;;1.55;;
22935;SDS011;11633;42.716;23.312;2022-08-02T05:37:01;2.40;;;1.70;;
22935;SDS011;11633;42.716;23.312;2022-08-02T05:39:26;3.13;;;2.03;;
22935;SDS011;11633;42.716;23.312;2022-08-02T05:41:51;2.53;;;2.00;;
22935;SDS011;11633;42.716;23.312;2022-08-02T05:44:17;2.07;;;1.80;;
22935;SDS011;11633;42.716;23.312;2022-08-02T05:46:42;2.58;;;2.05;;
22935;SDS011;11633;42.716;23.312;2022-08-02T05:49:07;2.80;;;2.22;;
22935;SDS011;11633;42.716;23.312;2022-08-02T05:56:33;2.40;;;1.90;;
22935;SDS011;11633;42.716;23.312;2022-08-02T05:59:04;2.47;;;2.25;;
22935;SDS011;11633;42.716;23.312;2022-08-02T06:01:34;1.77;;;1.60;;
22935;SDS011;11633;42.716;23.312;2022-08-02T06:04:06;2.42;;;2.10;;
22935;SDS011;11633;42.716;23.312;2022-08-02T06:06:33;2.95;;;2.50;;
22935;SDS011;11633;42.716;23.312;2022-08-02T06:08:59;5.20;;;3.20;;
22935;SDS011;11633;42.716;23.312;2022-08-02T06:11:31;3.80;;;2.80;;
22935;SDS011;11633;42.716;23.312;2022-08-02T06:13:57;4.60;;;2.47;;
22935;SDS011;11633;42.716;23.312;2022-08-02T06:16:25;4.25;;;2.70;;
22935;SDS011;11633;42.716;23.312;2022-08-02T06:18:50;3.50;;;2.67;;
22935;SDS011;11633;42.716;23.312;2022-08-02T06:21:16;3.42;;;2.67;;
22935;SDS011;11633;42.716;23.312;2022-08-02T06:23:41;5.68;;;3.35;;
22935;SDS011;11633;42.716;23.312;2022-08-02T06:26:10;2.90;;;2.45;;
22935;SDS011;11633;42.716;23.312;2022-08-02T06:28:37;1.73;;;1.60;;
22935;SDS011;11633;42.716;23.312;2022-08-02T06:31:02;1.92;;;1.80;;
22935;SDS011;11633;42.716;23.312;2022-08-02T06:33:29;1.33;;;1.23;;
22935;SDS011;11633;42.716;23.312;2022-08-02T06:36:30;2.22;;;2.03;;
22935;SDS011;11633;42.716;23.312;2022-08-02T06:39:11;3.20;;;2.90;;
22935;SDS011;11633;42.716;23.312;2022-08-02T06:41:38;1.52;;;1.42;;
22935;SDS011;11633;42.716;23.312;2022-08-02T06:44:06;1.33;;;1.23;;
22935;SDS011;11633;42.716;23.312;2022-08-02T06:46:31;1.50;;;1.00;;
22935;SDS011;11633;42.716;23.312;2022-08-02T06:48:56;1.20;;;1.10;;
22935;SDS011;11633;42.716;23.312;2022-08-02T06:51:22;1.27;;;1.17;;
22935;SDS011;11633;42.716;23.312;2022-08-02T06:53:47;1.40;;;1.30;;
22935;SDS011;11633;42.716;23.312;2022-08-02T06:56:12;1.33;;;1.23;;
22935;SDS011;11633;42.716;23.312;2022-08-02T06:58:38;1.73;;;1.40;;
22935;SDS011;11633;42.716;23.312;2022-08-02T07:01:04;1.55;;;1.15;;
22935;SDS011;11633;42.716;23.312;2022-08-02T07:03:34;2.45;;;1.30;;
22935;SDS011;11633;42.716;23.312;2022-08-02T07:06:00;0.90;;;0.90;;
22935;SDS011;11633;42.716;23.312;2022-08-02T07:08:26;1.20;;;1.20;;
22935;SDS011;11633;42.716;23.312;2022-08-02T07:10:51;0.90;;;0.90;;
22935;SDS011;11633;42.716;23.312;2022-08-02T07:13:16;1.27;;;1.00;;
22935;SDS011;11633;42.716;23.312;2022-08-02T07:15:42;1.15;;;1.08;;
22935;SDS011;11633;42.716;23.312;2022-08-02T07:18:07;0.80;;;0.80;;
22935;SDS011;11633;42.716;23.312;2022-08-02T07:20:38;0.93;;;0.88;;
22935;SDS011;11633;42.716;23.312;2022-08-02T07:23:04;1.67;;;1.10;;
22935;SDS011;11633;42.716;23.312;2022-08-02T07:25:29;1.00;;;0.90;;
22935;SDS011;11633;42.716;23.312;2022-08-02T07:27:54;1.00;;;1.00;;
22935;SDS011;11633;42.716;23.312;2022-08-02T07:30:19;2.00;;;1.60;;
22935;SDS011;11633;42.716;23.312;2022-08-02T07:32:45;2.30;;;1.53;;
22935;SDS011;11633;42.716;23.312;2022-08-02T07:35:10;1.37;;;1.27;;
22935;SDS011;11633;42.716;23.312;2022-08-02T07:37:35;2.35;;;1.85;;
22935;SDS011;11633;42.716;23.312;2022-08-02T07:40:03;2.10;;;1.08;;
22935;SDS011;11633;42.716;23.312;2022-08-02T07:42:28;0.80;;;0.80;;
22935;SDS011;11633;42.716;23.312;2022-08-02T07:44:53;1.10;;;1.00;;
22935;SDS011;11633;42.716;23.312;2022-08-02T07:47:19;1.05;;;0.95;;
22935;SDS011;11633;42.716;23.312;2022-08-02T07:49:44;1.77;;;0.93;;
22935;SDS011;11633;42.716;23.312;2022-08-02T07:52:09;0.63;;;0.63;;
22935;SDS011;11633;42.716;23.312;2022-08-02T07:54:34;0.98;;;0.98;;
22935;SDS011;11633;42.716;23.312;2022-08-02T07:57:00;0.80;;;0.80;;
22935;SDS011;11633;42.716;23.312;2022-08-02T07:59:25;1.40;;;1.30;;
22935;SDS011;11633;42.716;23.312;2022-08-02T08:01:51;1.00;;;0.90;;
22935;SDS011;11633;42.716;23.312;2022-08-02T08:04:16;0.93;;;0.90;;
22935;SDS011;11633;42.716;23.312;2022-08-02T08:06:42;1.23;;;0.85;;
22935;SDS011;11633;42.716;23.312;2022-08-02T08:09:07;0.70;;;0.70;;
22935;SDS011;11633;42.716;23.312;2022-08-02T08:13:21;0.70;;;0.70;;
22935;SDS011;11633;42.716;23.312;2022-08-02T08:15:46;0.60;;;0.60;;
22935;SDS011;11633;42.716;23.312;2022-08-02T08:18:11;1.60;;;0.70;;
22935;SDS011;11633;42.716;23.312;2022-08-02T08:20:37;0.70;;;0.60;;
22935;SDS011;11633;42.716;23.312;2022-08-02T08:23:02;1.10;;;1.00;;
22935;SDS011;11633;42.716;23.312;2022-08-02T08:25:28;1.25;;;0.90;;
22935;SDS011;11633;42.716;23.312;2022-08-02T08:27:53;1.00;;;0.90;;
22935;SDS011;11633;42.716;23.312;2022-08-02T08:30:19;1.20;;;1.10;;
22935;SDS011;11633;42.716;23.312;2022-08-02T08:32:45;0.90;;;0.57;;
22935;SDS011;11633;42.716;23.312;2022-08-02T08:35:11;1.65;;;0.68;;
22935;SDS011;11633;42.716;23.312;2022-08-02T08:37:38;0.70;;;0.70;;
22935;SDS011;11633;42.716;23.312;2022-08-02T08:40:04;0.70;;;0.70;;
22935;SDS011;11633;42.716;23.312;2022-08-02T08:42:30;0.88;;;0.80;;
22935;SDS011;11633;42.716;23.312;2022-08-02T08:44:55;0.60;;;0.60;;
22935;SDS011;11633;42.716;23.312;2022-08-02T08:47:21;1.08;;;0.90;;
22935;SDS011;11633;42.716;23.312;2022-08-02T08:49:46;2.22;;;1.95;;
22935;SDS011;11633;42.716;23.312;2022-08-02T08:52:13;1.52;;;1.08;;
22935;SDS011;11633;42.716;23.312;2022-08-02T08:54:39;0.75;;;0.73;;
22935;SDS011;11633;42.716;23.312;2022-08-02T08:57:05;1.70;;;1.55;;
22935;SDS011;11633;42.716;23.312;2022-08-02T08:59:30;1.40;;;1.00;;
22935;SDS011;11633;42.716;23.312;2022-08-02T09:01:56;0.60;;;0.60;;
22935;SDS011;11633;42.716;23.312;2022-08-02T09:04:22;0.70;;;0.65;;
22935;SDS011;11633;42.716;23.312;2022-08-02T09:06:47;0.70;;;0.70;;
22935;SDS011;11633;42.716;23.312;2022-08-02T09:09:12;0.50;;;0.50;;
22935;SDS011;11633;42.716;23.312;2022-08-02T09:11:37;0.50;;;0.50;;
22935;SDS011;11633;42.716;23.312;2022-08-02T09:14:03;0.77;;;0.65;;
22935;SDS011;11633;42.716;23.312;2022-08-02T09:16:39;0.95;;;0.70;;
22935;SDS011;11633;42.716;23.312;2022-08-02T09:19:23;0.70;;;0.60;;
22935;SDS011;11633;42.716;23.312;2022-08-02T09:21:49;0.50;;;0.50;;
22935;SDS011;11633;42.716;23.312;2022-08-02T09:24:19;1.52;;;0.50;;
22935;SDS011;11633;42.716;23.312;2022-08-02T09:26:44;0.65;;;0.60;;
22935;SDS011;11633;42.716;23.312;2022-08-02T09:29:10;1.45;;;0.57;;
22935;SDS011;11633;42.716;23.312;2022-08-02T09:31:35;1.48;;;0.70;;
22935;SDS011;11633;42.716;23.312;2022-08-02T09:34:00;0.70;;;0.70;;
22935;SDS011;11633;42.716;23.312;2022-08-02T09:36:27;0.60;;;0.60;;
22935;SDS011;11633;42.716;23.312;2022-08-02T09:39:02;0.82;;;0.70;;
22935;SDS011;11633;42.716;23.312;2022-08-02T09:41:32;0.50;;;0.50;;
22935;SDS011;11633;42.716;23.312;2022-08-02T09:43:58;0.60;;;0.60;;
22935;SDS011;11633;42.716;23.312;2022-08-02T09:46:25;0.50;;;0.50;;
22935;SDS011;11633;42.716;23.312;2022-08-02T09:48:51;0.70;;;0.50;;
22935;SDS011;11633;42.716;23.312;2022-08-02T09:51:21;0.60;;;0.60;;
22935;SDS011;11633;42.716;23.312;2022-08-02T09:53:47;0.57;;;0.50;;
22935;SDS011;11633;42.716;23.312;2022-08-02T09:56:13;0.30;;;0.30;;
22935;SDS011;11633;42.716;23.312;2022-08-02T09:58:39;0.80;;;0.70;;
22935;SDS011;11633;42.716;23.312;2022-08-02T10:01:05;0.50;;;0.50;;
22935;SDS011;11633;42.716;23.312;2022-08-02T10:03:30;0.73;;;0.57;;
22935;SDS011;11633;42.716;23.312;2022-08-02T10:05:56;1.48;;;0.60;;
22935;SDS011;11633;42.716;23.312;2022-08-02T10:08:26;1.35;;;0.70;;
22935;SDS011;11633;42.716;23.312;2022-08-02T10:10:52;0.60;;;0.60;;
22935;SDS011;11633;42.716;23.312;2022-08-02T10:13:33;0.75;;;0.52;;
22935;SDS011;11633;42.716;23.312;2022-08-02T10:15:58;1.00;;;0.90;;
22935;SDS011;11633;42.716;23.312;2022-08-02T10:18:24;0.60;;;0.55;;
22935;SDS011;11633;42.716;23.312;2022-08-02T10:20:49;0.82;;;0.82;;
22935;SDS011;11633;42.716;23.312;2022-08-02T10:23:15;0.90;;;0.90;;
22935;SDS011;11633;42.716;23.312;2022-08-02T10:25:40;0.68;;;0.65;;
22935;SDS011;11633;42.716;23.312;2022-08-02T10:28:06;0.95;;;0.50;;
22935;SDS011;11633;42.716;23.312;2022-08-02T10:30:33;1.30;;;0.80;;
22935;SDS011;11633;42.716;23.312;2022-08-02T10:33:00;0.75;;;0.75;;
22935;SDS011;11633;42.716;23.312;2022-08-02T10:35:27;0.77;;;0.75;;
22935;SDS011;11633;42.716;23.312;2022-08-02T10:37:56;0.73;;;0.50;;
22935;SDS011;11633;42.716;23.312;2022-08-02T10:40:22;0.82;;;0.60;;
22935;SDS011;11633;42.716;23.312;2022-08-02T10:42:48;0.60;;;0.60;;
22935;SDS011;11633;42.716;23.312;2022-08-02T10:45:15;0.50;;;0.50;;
22935;SDS011;11633;42.716;23.312;2022-08-02T10:47:56;0.50;;;0.40;;
22935;SDS011;11633;42.716;23.312;2022-08-02T10:53:22;1.08;;;0.50;;
22935;SDS011;11633;42.716;23.312;2022-08-02T10:55:48;1.95;;;0.45;;
22935;SDS011;11633;42.716;23.312;2022-08-02T10:58:17;1.45;;;0.70;;
22935;SDS011;11633;42.716;23.312;2022-08-02T11:00:49;1.10;;;0.75;;
22935;SDS011;11633;42.716;23.312;2022-08-02T11:08:26;0.70;;;0.63;;
22935;SDS011;11633;42.716;23.312;2022-08-02T11:10:52;0.50;;;0.50;;
22935;SDS011;11633;42.716;23.312;2022-08-02T11:13:21;1.00;;;0.90;;
22935;SDS011;11633;42.716;23.312;2022-08-02T11:15:51;0.70;;;0.65;;
22935;SDS011;11633;42.716;23.312;2022-08-02T11:18:17;0.52;;;0.45;;
22935;SDS011;11633;42.716;23.312;2022-08-02T11:20:43;1.90;;;1.80;;
22935;SDS011;11633;42.716;23.312;2022-08-02T11:25:52;0.40;;;0.40;;
22935;SDS011;11633;42.716;23.312;2022-08-02T11:28:17;0.40;;;0.40;;
22935;SDS011;11633;42.716;23.312;2022-08-02T11:30:42;0.30;;;0.30;;
22935;SDS011;11633;42.716;23.312;2022-08-02T11:33:08;1.15;;;0.30;;
22935;SDS011;11633;42.716;23.312;2022-08-02T11:35:37;0.40;;;0.40;;
22935;SDS011;11633;42.716;23.312;2022-08-02T11:38:15;0.50;;;0.50;;
22935;SDS011;11633;42.716;23.312;2022-08-02T11:40:41;0.60;;;0.60;;
22935;SDS011;11633;42.716;23.312;2022-08-02T11:43:28;0.60;;;0.60;;
22935;SDS011;11633;42.716;23.312;2022-08-02T11:45:52;0.40;;;0.40;;
22935;SDS011;11633;42.716;23.312;2022-08-02T11:48:34;0.50;;;0.50;;
22935;SDS011;11633;42.716;23.312;2022-08-02T11:53:48;0.40;;;0.40;;
22935;SDS011;11633;42.716;23.312;2022-08-02T11:56:14;0.80;;;0.50;;
22935;SDS011;11633;42.716;23.312;2022-08-02T11:58:40;0.40;;;0.40;;
22935;SDS011;11633;42.716;23.312;2022-08-02T12:01:05;0.60;;;0.60;;
22935;SDS011;11633;42.716;23.312;2022-08-02T12:03:37;0.50;;;0.50;;
22935;SDS011;11633;42.716;23.312;2022-08-02T12:06:03;1.27;;;0.85;;
22935;SDS011;11633;42.716;23.312;2022-08-02T12:08:29;1.08;;;0.55;;
22935;SDS011;11633;42.716;23.312;2022-08-02T12:10:54;0.38;;;0.30;;
22935;SDS011;11633;42.716;23.312;2022-08-02T12:13:20;0.50;;;0.50;;
22935;SDS011;11633;42.716;23.312;2022-08-02T12:15:45;0.57;;;0.57;;
22935;SDS011;11633;42.716;23.312;2022-08-02T12:18:12;0.40;;;0.38;;
22935;SDS011;11633;42.716;23.312;2022-08-02T12:20:56;0.40;;;0.40;;
22935;SDS011;11633;42.716;23.312;2022-08-02T12:23:21;0.30;;;0.30;;
22935;SDS011;11633;42.716;23.312;2022-08-02T12:26:01;1.17;;;0.60;;
22935;SDS011;11633;42.716;23.312;2022-08-02T12:28:27;1.33;;;1.27;;
22935;SDS011;11633;42.716;23.312;2022-08-02T12:30:57;0.70;;;0.70;;
22935;SDS011;11633;42.716;23.312;2022-08-02T12:33:25;1.38;;;0.40;;
22935;SDS011;11633;42.716;23.312;2022-08-02T12:35:50;0.50;;;0.50;;
22935;SDS011;11633;42.716;23.312;2022-08-02T12:38:16;0.50;;;0.50;;
22935;SDS011;11633;42.716;23.312;2022-08-02T12:40:41;0.57;;;0.57;;
22935;SDS011;11633;42.716;23.312;2022-08-02T12:43:14;0.50;;;0.50;;
22935;SDS011;11633;42.716;23.312;2022-08-02T12:45:45;0.50;;;0.50;;
22935;SDS011;11633;42.716;23.312;2022-08-02T12:48:11;0.40;;;0.40;;
22935;SDS011;11633;42.716;23.312;2022-08-02T12:50:37;0.70;;;0.40;;
22935;SDS011;11633;42.716;23.312;2022-08-02T12:53:35;0.70;;;0.70;;
22935;SDS011;11633;42.716;23.312;2022-08-02T12:55:55;0.50;;;0.50;;
22935;SDS011;11633;42.716;23.312;2022-08-02T12:58:20;0.77;;;0.77;;
22935;SDS011;11633;42.716;23.312;2022-08-02T13:00:53;0.80;;;0.60;;
22935;SDS011;11633;42.716;23.312;2022-08-02T13:03:18;0.20;;;0.20;;
22935;SDS011;11633;42.716;23.312;2022-08-02T13:05:44;0.95;;;0.77;;
22935;SDS011;11633;42.716;23.312;2022-08-02T13:08:09;0.68;;;0.68;;
22935;SDS011;11633;42.716;23.312;2022-08-02T13:10:34;1.20;;;0.70;;
22935;SDS011;11633;42.716;23.312;2022-08-02T13:13:00;1.17;;;1.02;;
22935;SDS011;11633;42.716;23.312;2022-08-02T13:15:26;1.15;;;1.05;;
22935;SDS011;11633;42.716;23.312;2022-08-02T13:17:52;0.70;;;0.70;;
22935;SDS011;11633;42.716;23.312;2022-08-02T13:20:55;0.70;;;0.52;;
22935;SDS011;11633;42.716;23.312;2022-08-02T13:23:21;0.47;;;0.40;;
22935;SDS011;11633;42.716;23.312;2022-08-02T13:25:46;0.60;;;0.30;;
22935;SDS011;11633;42.716;23.312;2022-08-02T13:28:11;0.40;;;0.40;;
22935;SDS011;11633;42.716;23.312;2022-08-02T13:30:36;0.57;;;0.50;;
22935;SDS011;11633;42.716;23.312;2022-08-02T13:33:02;0.30;;;0.30;;
22935;SDS011;11633;42.716;23.312;2022-08-02T13:35:27;0.50;;;0.50;;
22935;SDS011;11633;42.716;23.312;2022-08-02T13:37:53;0.55;;;0.55;;
22935;SDS011;11633;42.716;23.312;2022-08-02T13:40:18;0.52;;;0.50;;
22935;SDS011;11633;42.716;23.312;2022-08-02T13:42:43;0.57;;;0.40;;
22935;SDS011;11633;42.716;23.312;2022-08-02T13:45:09;0.50;;;0.50;;
22935;SDS011;11633;42.716;23.312;2022-08-02T13:47:36;0.47;;;0.45;;
22935;SDS011;11633;42.716;23.312;2022-08-02T13:50:02;0.63;;;0.50;;
22935;SDS011;11633;42.716;23.312;2022-08-02T13:52:27;0.30;;;0.30;;
22935;SDS011;11633;42.716;23.312;2022-08-02T13:54:53;0.40;;;0.40;;
22935;SDS011;11633;42.716;23.312;2022-08-02T13:57:18;0.40;;;0.40;;
22935;SDS011;11633;42.716;23.312;2022-08-02T13:59:43;0.65;;;0.40;;
22935;SDS011;11633;42.716;23.312;2022-08-02T14:02:08;0.52;;;0.43;;
22935;SDS011;11633;42.716;23.312;2022-08-02T14:04:34;0.73;;;0.57;;
22935;SDS011;11633;42.716;23.312;2022-08-02T14:07:00;0.63;;;0.52;;
22935;SDS011;11633;42.716;23.312;2022-08-02T14:09:25;0.60;;;0.60;;
22935;SDS011;11633;42.716;23.312;2022-08-02T14:11:51;0.55;;;0.55;;
22935;SDS011;11633;42.716;23.312;2022-08-02T14:14:16;0.60;;;0.50;;
22935;SDS011;11633;42.716;23.312;2022-08-02T14:16:41;0.35;;;0.35;;
22935;SDS011;11633;42.716;23.312;2022-08-02T14:19:06;0.43;;;0.43;;
22935;SDS011;11633;42.716;23.312;2022-08-02T14:21:33;0.60;;;0.47;;
22935;SDS011;11633;42.716;23.312;2022-08-02T14:23:58;0.65;;;0.65;;
22935;SDS011;11633;42.716;23.312;2022-08-02T14:26:23;0.40;;;0.40;;
22935;SDS011;11633;42.716;23.312;2022-08-02T14:28:49;0.50;;;0.50;;
22935;SDS011;11633;42.716;23.312;2022-08-02T14:31:14;0.40;;;0.40;;
22935;SDS011;11633;42.716;23.312;2022-08-02T14:33:39;0.50;;;0.50;;
22935;SDS011;11633;42.716;23.312;2022-08-02T14:36:05;0.45;;;0.45;;
22935;SDS011;11633;42.716;23.312;2022-08-02T14:38:30;0.40;;;0.40;;
22935;SDS011;11633;42.716;23.312;2022-08-02T14:40:56;0.38;;;0.38;;
22935;SDS011;11633;42.716;23.312;2022-08-02T14:43:21;0.50;;;0.30;;
22935;SDS011;11633;42.716;23.312;2022-08-02T14:46:05;0.30;;;0.30;;
22935;SDS011;11633;42.716;23.312;2022-08-02T14:48:30;0.98;;;0.40;;
22935;SDS011;11633;42.716;23.312;2022-08-02T14:50:56;0.82;;;0.40;;
22935;SDS011;11633;42.716;23.312;2022-08-02T14:53:21;0.70;;;0.70;;
22935;SDS011;11633;42.716;23.312;2022-08-02T14:55:46;1.13;;;0.93;;
22935;SDS011;11633;42.716;23.312;2022-08-02T14:58:11;0.50;;;0.50;;
22935;SDS011;11633;42.716;23.312;2022-08-02T15:00:37;0.50;;;0.50;;
22935;SDS011;11633;42.716;23.312;2022-08-02T15:03:04;0.60;;;0.32;;
22935;SDS011;11633;42.716;23.312;2022-08-02T15:05:30;0.28;;;0.28;;